Time;durP1;ratioP1;P1;durP2;ratioP2;P2;SDS_P1;SDS_P2;PMS_P1;PMS_P2;Temp;Humidity;BMP_temperature;BMP_pressure;BME280_temperature;BME280_humidity;BME280_pressure;Samples;Min_cycle;Max_cycle;Signal;HPM_P1;HPM_P2
2022/09/08 00:00:26;;;;;;;2.40;2.20;;;24.20;43.30;;;;;;5071251;28;20508;-10
2022/09/08 00:02:53;;;;;;;2.17;1.98;;;24.20;43.30;;;;;;5071045;28;20052;-10
2022/09/08 00:05:23;;;;;;;2.42;1.80;;;24.20;43.30;;;;;;5070970;28;20052;-10
2022/09/08 00:07:51;;;;;;;2.05;1.85;;;24.20;43.30;;;;;;5071026;28;20052;-10
2022/09/08 00:10:17;;;;;;;2.00;1.90;;;24.20;43.30;;;;;;5071138;28;20049;-10
2022/09/08 00:12:44;;;;;;;2.00;1.88;;;24.20;43.30;;;;;;5070901;28;20512;-10
2022/09/08 00:15:10;;;;;;;2.15;1.95;;;24.20;43.30;;;;;;5071051;28;20671;-10
2022/09/08 00:17:37;;;;;;;2.10;1.90;;;24.20;43.30;;;;;;5070850;28;20143;-10
2022/09/08 00:20:05;;;;;;;2.13;1.90;;;24.20;43.40;;;;;;5071264;28;20057;-10
2022/09/08 00:22:32;;;;;;;2.50;2.30;;;24.20;43.30;;;;;;5070647;28;20090;-10
2022/09/08 00:24:59;;;;;;;2.10;1.90;;;24.20;43.30;;;;;;5070692;28;20052;-10
2022/09/08 00:27:26;;;;;;;2.53;2.33;;;24.20;43.30;;;;;;5070656;28;20060;-10
2022/09/08 00:29:52;;;;;;;2.30;2.10;;;24.20;43.30;;;;;;5070657;28;20057;-10
2022/09/08 00:32:20;;;;;;;2.20;2.00;;;24.20;43.60;;;;;;5051444;28;20060;-10
2022/09/08 00:34:46;;;;;;;2.42;1.92;;;24.20;43.40;;;;;;5070764;28;20056;-10
2022/09/08 00:37:12;;;;;;;2.40;2.20;;;24.20;43.40;;;;;;5069995;28;20124;-10
2022/09/08 00:39:38;;;;;;;2.10;1.90;;;24.20;43.50;;;;;;5070462;28;20057;-10
2022/09/08 00:42:05;;;;;;;2.22;2.03;;;24.10;43.40;;;;;;5070149;28;20104;-10
2022/09/08 00:44:49;;;;;;;1.90;1.80;;;24.20;43.50;;;;;;5070589;28;20056;-10
2022/09/08 00:47:25;;;;;;;2.17;1.98;;;24.20;43.40;;;;;;5070272;28;20055;-10
2022/09/08 00:49:58;;;;;;;2.38;1.90;;;24.20;43.40;;;;;;5070383;28;20482;-10
2022/09/08 00:52:30;;;;;;;2.05;1.85;;;24.20;43.40;;;;;;5071008;28;20084;-10
2022/09/08 00:54:58;;;;;;;2.10;1.90;;;24.20;43.50;;;;;;5070667;28;20045;-10
2022/09/08 00:57:24;;;;;;;2.25;2.00;;;24.20;43.50;;;;;;5070138;28;20425;-10
2022/09/08 00:59:50;;;;;;;3.22;2.17;;;24.10;43.50;;;;;;5070210;28;20139;-10
2022/09/08 01:02:24;;;;;;;2.13;2.00;;;24.10;43.50;;;;;;5070037;28;20382;-9
2022/09/08 01:04:55;;;;;;;1.92;1.83;;;24.10;43.50;;;;;;5070841;28;20139;-10
2022/09/08 01:13:39;;;;;;;2.30;2.10;;;24.20;43.50;;;;;;5070450;28;20059;-10
2022/09/08 01:16:08;;;;;;;2.30;2.10;;;24.10;43.50;;;;;;5069829;28;20447;-10
2022/09/08 01:18:36;;;;;;;2.28;1.98;;;24.20;43.60;;;;;;5069834;28;20486;-10
2022/09/08 01:21:01;;;;;;;2.00;1.90;;;24.20;43.50;;;;;;5070325;28;20056;-10
2022/09/08 01:24:05;;;;;;;2.10;1.90;;;24.20;43.60;;;;;;5070575;28;20469;-9
2022/09/08 01:27:02;;;;;;;2.28;2.08;;;24.20;43.60;;;;;;5070232;28;20044;-10
2022/09/08 01:29:28;;;;;;;2.25;2.05;;;24.20;43.60;;;;;;5069514;28;20412;-10
2022/09/08 01:31:55;;;;;;;2.90;2.60;;;24.20;43.60;;;;;;5069844;28;20048;-10
2022/09/08 01:34:21;;;;;;;2.55;2.35;;;24.10;43.70;;;;;;5069801;28;20052;-10
2022/09/08 01:36:47;;;;;;;2.72;2.10;;;24.10;43.60;;;;;;5069720;28;20184;-10
2022/09/08 01:39:12;;;;;;;2.70;2.47;;;24.10;43.70;;;;;;5069600;28;20142;-10
2022/09/08 01:41:38;;;;;;;2.15;1.95;;;24.10;43.60;;;;;;5070093;28;20500;-10
2022/09/08 01:44:04;;;;;;;2.55;2.30;;;24.10;43.70;;;;;;5069639;28;20105;-10
2022/09/08 01:46:30;;;;;;;2.05;1.95;;;24.10;43.70;;;;;;5069628;28;20135;-10
2022/09/08 01:48:56;;;;;;;2.30;2.10;;;24.10;43.70;;;;;;5069570;28;20053;-10
2022/09/08 01:51:21;;;;;;;1.95;1.85;;;24.10;43.80;;;;;;5069623;28;20413;-10
2022/09/08 01:53:47;;;;;;;3.70;2.55;;;24.10;43.80;;;;;;5069532;28;20056;-10
2022/09/08 01:56:12;;;;;;;2.28;2.08;;;24.10;43.80;;;;;;5069624;28;20052;-10
2022/09/08 01:58:38;;;;;;;2.60;2.40;;;24.10;43.80;;;;;;5069430;28;20493;-10
2022/09/08 02:01:04;;;;;;;1.90;1.80;;;24.10;43.70;;;;;;5069313;28;20136;-10
2022/09/08 02:03:30;;;;;;;2.50;2.30;;;24.10;43.70;;;;;;5069344;28;20048;-10
2022/09/08 02:06:00;;;;;;;2.50;2.30;;;24.10;43.70;;;;;;5069313;28;20055;-10
2022/09/08 02:08:27;;;;;;;2.22;1.90;;;24.10;43.70;;;;;;5069720;28;20052;-10
2022/09/08 02:10:58;;;;;;;2.65;2.33;;;24.10;43.70;;;;;;5069139;28;20053;-10
2022/09/08 02:13:24;;;;;;;2.60;2.40;;;24.10;43.80;;;;;;5069226;28;20136;-10
2022/09/08 02:15:50;;;;;;;2.33;2.13;;;24.10;43.70;;;;;;5069482;28;20135;-10
2022/09/08 02:18:16;;;;;;;2.47;2.28;;;24.10;43.80;;;;;;5070324;28;20048;-10
2022/09/08 02:20:42;;;;;;;2.33;2.13;;;24.10;43.80;;;;;;5071945;28;20045;-10
2022/09/08 02:23:07;;;;;;;2.53;2.10;;;24.10;43.80;;;;;;5072211;28;20079;-10
2022/09/08 02:25:33;;;;;;;2.22;2.00;;;24.10;43.80;;;;;;5072078;28;20174;-10
2022/09/08 02:27:59;;;;;;;2.25;2.05;;;24.10;43.80;;;;;;5072189;28;20060;-10
2022/09/08 02:30:25;;;;;;;2.35;2.15;;;24.10;43.90;;;;;;5072364;28;20051;-10
2022/09/08 02:32:51;;;;;;;2.20;2.00;;;24.10;43.90;;;;;;5072106;28;20040;-10
2022/09/08 02:35:17;;;;;;;2.63;2.42;;;24.10;43.90;;;;;;5071943;28;20124;-10
2022/09/08 02:37:43;;;;;;;2.33;2.13;;;24.10;43.90;;;;;;5072055;28;20118;-10
2022/09/08 02:40:09;;;;;;;2.35;2.15;;;24.10;43.90;;;;;;5072356;28;20053;-9
2022/09/08 02:42:36;;;;;;;2.40;2.20;;;24.10;43.90;;;;;;5071847;28;20494;-10
2022/09/08 02:45:02;;;;;;;2.35;2.15;;;24.10;43.90;;;;;;5071956;28;20056;-10
2022/09/08 02:47:28;;;;;;;2.40;2.20;;;24.00;43.80;;;;;;5071957;28;20446;-10
2022/09/08 02:49:55;;;;;;;2.33;2.13;;;24.10;43.90;;;;;;5071897;28;20109;-10
2022/09/08 02:52:21;;;;;;;3.80;2.17;;;24.10;43.90;;;;;;5071703;28;20416;-10
2022/09/08 02:54:46;;;;;;;2.17;1.98;;;24.10;43.90;;;;;;5071694;28;20064;-10
2022/09/08 02:57:12;;;;;;;2.75;2.50;;;24.00;43.90;;;;;;5071514;28;20489;-10
2022/09/08 02:59:37;;;;;;;2.47;2.28;;;24.10;44.50;;;;;;5071582;28;20470;-10
2022/09/08 03:02:03;;;;;;;2.60;2.40;;;24.10;43.90;;;;;;5071670;28;20056;-10
2022/09/08 03:04:29;;;;;;;2.30;2.10;;;24.10;43.90;;;;;;5071671;28;20498;-10
2022/09/08 03:06:54;;;;;;;2.35;2.15;;;24.00;43.90;;;;;;5072025;28;20081;-10
2022/09/08 03:09:20;;;;;;;2.58;2.15;;;24.00;43.90;;;;;;5071530;28;20052;-10
2022/09/08 03:11:46;;;;;;;2.50;2.30;;;24.00;43.90;;;;;;5071639;28;20059;-10
2022/09/08 03:14:11;;;;;;;2.50;2.30;;;24.10;44.00;;;;;;5071679;28;20545;-10
2022/09/08 03:16:38;;;;;;;2.35;2.15;;;24.10;43.90;;;;;;5071556;28;20498;-10
2022/09/08 03:19:04;;;;;;;2.53;2.33;;;24.00;43.90;;;;;;5071350;28;20094;-10
2022/09/08 03:21:30;;;;;;;2.47;2.28;;;24.00;43.90;;;;;;5071392;28;20052;-9
2022/09/08 03:23:56;;;;;;;1.95;1.85;;;24.00;43.90;;;;;;5071705;28;20040;-10
2022/09/08 03:26:22;;;;;;;2.30;2.10;;;24.00;43.90;;;;;;5071425;28;20546;-10
2022/09/08 03:28:48;;;;;;;3.17;2.40;;;24.00;44.00;;;;;;5071079;28;20057;-10
2022/09/08 03:31:19;;;;;;;2.42;2.22;;;24.00;43.90;;;;;;5070774;27;20060;-10
2022/09/08 03:33:46;;;;;;;2.28;2.08;;;24.10;43.90;;;;;;5071338;28;20565;-10
2022/09/08 03:36:13;;;;;;;2.38;2.17;;;24.00;43.90;;;;;;5071284;28;20073;-10
2022/09/08 03:38:39;;;;;;;1.95;1.85;;;24.10;43.90;;;;;;5071385;28;20116;-10
2022/09/08 03:41:11;;;;;;;2.85;2.42;;;24.00;43.90;;;;;;5071273;28;20059;-10
2022/09/08 03:43:37;;;;;;;2.80;2.55;;;24.00;43.90;;;;;;5071284;28;20064;-10
2022/09/08 03:46:07;;;;;;;1.98;1.88;;;24.00;43.90;;;;;;5070998;28;20450;-10
2022/09/08 03:48:34;;;;;;;2.30;2.10;;;24.00;44.00;;;;;;5071140;28;20490;-10
2022/09/08 03:51:25;;;;;;;2.20;2.05;;;24.00;44.00;;;;;;5071080;28;20301;-10
2022/09/08 03:53:52;;;;;;;2.60;2.40;;;24.00;44.00;;;;;;5071096;28;20527;-10
2022/09/08 03:56:18;;;;;;;2.33;2.13;;;24.00;44.00;;;;;;5070864;28;20083;-10
2022/09/08 03:58:44;;;;;;;2.00;1.90;;;24.00;43.90;;;;;;5071128;28;20076;-10
2022/09/08 04:01:13;;;;;;;2.38;2.17;;;24.00;43.90;;;;;;5071025;28;20076;-9
2022/09/08 04:03:39;;;;;;;2.53;2.33;;;24.00;44.00;;;;;;5070953;28;20519;-10
2022/09/08 04:06:05;;;;;;;2.70;2.50;;;24.00;43.90;;;;;;5070892;28;20044;-11
2022/09/08 04:08:31;;;;;;;2.42;2.22;;;24.00;44.00;;;;;;5070800;28;20057;-10
2022/09/08 04:10:57;;;;;;;2.42;2.20;;;24.00;44.00;;;;;;5071208;28;20140;-10
2022/09/08 04:13:23;;;;;;;2.63;2.42;;;24.00;44.00;;;;;;5070890;28;20482;-10
2022/09/08 04:15:49;;;;;;;2.35;2.15;;;24.00;44.00;;;;;;5070789;28;20875;-10
2022/09/08 04:18:15;;;;;;;2.33;2.10;;;24.00;44.00;;;;;;5070996;28;20109;-10
2022/09/08 04:20:41;;;;;;;2.35;2.13;;;24.00;44.00;;;;;;5070782;27;20048;-10
2022/09/08 04:23:08;;;;;;;2.70;2.25;;;24.00;44.00;;;;;;5071301;28;20056;-10
2022/09/08 04:25:33;;;;;;;2.53;2.33;;;24.00;44.00;;;;;;5071198;28;20048;-10
2022/09/08 04:27:59;;;;;;;2.50;2.30;;;24.00;44.00;;;;;;5070870;28;20177;-10
2022/09/08 04:30:25;;;;;;;2.00;1.90;;;24.00;44.60;;;;;;5070981;28;20378;-10
2022/09/08 04:32:51;;;;;;;2.60;2.40;;;24.00;44.10;;;;;;5070933;28;20060;-10
2022/09/08 04:35:17;;;;;;;2.85;2.60;;;24.00;44.00;;;;;;5070556;28;20052;-9
2022/09/08 04:37:42;;;;;;;2.67;2.30;;;24.00;44.10;;;;;;5070485;28;20052;-10
2022/09/08 04:40:08;;;;;;;3.00;2.50;;;24.00;44.10;;;;;;5070379;28;20052;-10
2022/09/08 04:42:35;;;;;;;2.50;2.30;;;24.00;44.10;;;;;;5070560;28;20064;-10
2022/09/08 04:45:02;;;;;;;2.42;2.22;;;24.00;44.10;;;;;;5070502;28;20049;-10
2022/09/08 04:47:29;;;;;;;2.50;2.30;;;24.00;44.10;;;;;;5070299;28;20469;-10
2022/09/08 04:49:56;;;;;;;2.30;2.10;;;24.00;44.10;;;;;;5070352;28;20462;-10
2022/09/08 04:52:24;;;;;;;2.50;2.30;;;24.00;44.00;;;;;;5070680;28;20053;-10
2022/09/08 04:54:51;;;;;;;2.47;2.28;;;24.00;44.10;;;;;;5070283;28;20496;-10
2022/09/08 04:57:18;;;;;;;2.40;2.20;;;24.00;44.60;;;;;;5069876;28;20053;-10
2022/09/08 04:59:44;;;;;;;2.38;2.17;;;24.00;44.10;;;;;;5069969;28;20470;-10
2022/09/08 05:02:10;;;;;;;2.20;2.00;;;24.00;44.10;;;;;;5070402;28;20048;-10
2022/09/08 05:04:37;;;;;;;2.38;2.17;;;24.00;44.10;;;;;;5070045;28;20052;-10
2022/09/08 05:07:03;;;;;;;2.35;2.15;;;24.00;44.10;;;;;;5070666;28;20051;-10
2022/09/08 05:09:28;;;;;;;2.35;2.15;;;24.00;44.10;;;;;;5069829;28;20052;-10
2022/09/08 05:11:54;;;;;;;2.30;2.10;;;24.00;44.10;;;;;;5069845;28;20049;-10
2022/09/08 05:14:19;;;;;;;2.80;2.53;;;24.00;44.10;;;;;;5070061;28;20048;-10
2022/09/08 05:16:45;;;;;;;2.80;2.60;;;24.00;44.10;;;;;;5069936;28;20048;-10
2022/09/08 05:19:12;;;;;;;2.40;2.20;;;24.00;44.10;;;;;;5069740;28;20056;-10
2022/09/08 05:21:38;;;;;;;2.40;2.20;;;24.00;44.10;;;;;;5070203;28;20054;-10
2022/09/08 05:24:04;;;;;;;2.65;2.45;;;24.00;44.10;;;;;;5070253;28;20143;-10
2022/09/08 05:26:30;;;;;;;2.50;2.30;;;24.00;44.10;;;;;;5052047;28;20049;-10
2022/09/08 05:28:57;;;;;;;2.60;2.40;;;24.00;44.10;;;;;;5069604;28;20063;-10
2022/09/08 05:31:27;;;;;;;2.30;2.10;;;24.00;44.10;;;;;;5070312;28;20061;-10
2022/09/08 05:33:59;;;;;;;2.57;2.37;;;24.00;44.10;;;;;;5069923;28;20053;-10
2022/09/08 05:36:28;;;;;;;2.53;2.28;;;24.00;44.10;;;;;;5070039;28;20454;-10
2022/09/08 05:38:54;;;;;;;2.58;2.33;;;24.00;44.10;;;;;;5069560;28;20056;-10
2022/09/08 05:41:21;;;;;;;2.45;2.25;;;24.00;44.10;;;;;;5069730;28;20519;-10
2022/09/08 05:43:46;;;;;;;2.53;2.33;;;24.00;44.10;;;;;;5069682;28;20096;-10
2022/09/08 05:46:12;;;;;;;3.08;2.40;;;24.00;44.10;;;;;;5069828;28;20044;-10
2022/09/08 05:48:38;;;;;;;2.63;2.42;;;24.00;44.10;;;;;;5069667;28;20059;-10
2022/09/08 05:51:09;;;;;;;2.35;2.15;;;24.00;44.10;;;;;;5070121;28;20040;-10
2022/09/08 05:53:35;;;;;;;2.50;2.30;;;24.10;44.10;;;;;;5068894;28;20091;-9
2022/09/08 05:56:04;;;;;;;2.83;2.63;;;24.10;44.10;;;;;;5069459;28;20094;-10
2022/09/08 05:58:30;;;;;;;2.60;2.40;;;24.10;44.10;;;;;;5070004;28;20089;-10
2022/09/08 06:01:01;;;;;;;2.80;2.60;;;24.10;44.10;;;;;;5069406;28;20104;-10
2022/09/08 06:03:27;;;;;;;2.90;2.60;;;24.10;44.10;;;;;;5069982;28;20053;-10
2022/09/08 06:05:55;;;;;;;2.53;2.33;;;24.10;44.10;;;;;;5069585;28;20048;-10
2022/09/08 06:08:22;;;;;;;2.85;2.65;;;24.10;44.10;;;;;;5069218;28;20516;-10
2022/09/08 06:10:52;;;;;;;2.55;2.35;;;24.10;44.10;;;;;;5069185;28;20059;-10
2022/09/08 06:13:18;;;;;;;3.55;2.50;;;24.10;44.00;;;;;;5069199;28;20063;-10
2022/09/08 06:15:44;;;;;;;2.40;2.20;;;24.10;44.00;;;;;;5069071;28;20052;-10
2022/09/08 06:18:10;;;;;;;2.63;2.42;;;24.10;44.00;;;;;;5069020;28;20105;-10
2022/09/08 06:20:36;;;;;;;2.47;2.28;;;24.10;43.90;;;;;;5069235;27;20048;-10
2022/09/08 06:23:02;;;;;;;2.75;2.55;;;24.10;43.90;;;;;;5069018;28;20064;-10
2022/09/08 06:25:27;;;;;;;2.55;2.35;;;24.10;43.90;;;;;;5069217;28;20053;-10
2022/09/08 06:28:07;;;;;;;2.72;2.40;;;24.10;44.00;;;;;;5068988;28;20105;-10
2022/09/08 06:30:33;;;;;;;2.40;2.20;;;24.10;44.00;;;;;;5068912;28;20052;-9
2022/09/08 06:33:08;;;;;;;2.65;2.45;;;24.20;44.00;;;;;;5068799;28;20063;-10
2022/09/08 06:35:41;;;;;;;3.75;2.40;;;24.10;43.90;;;;;;5068779;28;20105;-9
2022/09/08 06:38:14;;;;;;;3.00;2.70;;;24.20;43.90;;;;;;5049471;28;20053;-10
2022/09/08 06:40:44;;;;;;;2.72;2.47;;;24.10;43.90;;;;;;5068756;28;20504;-10
2022/09/08 06:43:20;;;;;;;2.80;2.60;;;24.10;43.90;;;;;;5068691;28;20052;-10
2022/09/08 06:45:51;;;;;;;2.50;2.30;;;24.10;43.90;;;;;;5068635;28;20049;-10
2022/09/08 06:48:37;;;;;;;2.65;2.25;;;24.10;43.90;;;;;;5069219;28;20095;-10
2022/09/08 06:51:22;;;;;;;2.72;2.53;;;24.20;43.90;;;;;;5068581;28;20049;-10
2022/09/08 06:54:08;;;;;;;2.55;2.35;;;24.20;44.00;;;;;;5069022;28;20512;-10
2022/09/08 06:56:55;;;;;;;2.60;2.40;;;24.20;43.90;;;;;;5068467;28;20052;-10
2022/09/08 06:59:40;;;;;;;3.40;3.10;;;24.20;44.00;;;;;;5068261;28;20052;-10
2022/09/08 07:02:20;;;;;;;2.17;2.03;;;24.20;44.00;;;;;;5068592;28;20112;-10
2022/09/08 07:05:31;;;;;;;2.40;2.20;;;24.20;44.00;;;;;;5068819;28;20067;-10
2022/09/08 07:08:02;;;;;;;3.83;2.65;;;24.20;44.00;;;;;;5071311;28;20053;-10
2022/09/08 07:11:04;;;;;;;3.15;2.85;;;24.20;44.00;;;;;;5053655;28;20049;-10
2022/09/08 07:13:40;;;;;;;3.60;2.67;;;24.20;44.00;;;;;;5072656;28;20053;-9
2022/09/08 07:16:18;;;;;;;2.28;2.13;;;24.10;44.00;;;;;;5071342;28;20045;-10
2022/09/08 07:18:49;;;;;;;3.55;2.60;;;24.10;44.00;;;;;;5071296;28;20505;-11
2022/09/08 07:21:34;;;;;;;2.67;2.47;;;24.10;44.50;;;;;;5071861;28;20040;-10
2022/09/08 07:24:02;;;;;;;3.05;2.80;;;24.10;44.10;;;;;;5071472;28;20059;-10
2022/09/08 07:26:38;;;;;;;3.47;2.28;;;24.10;44.10;;;;;;5071361;28;20044;-10
2022/09/08 07:29:17;;;;;;;2.38;2.17;;;24.10;44.00;;;;;;5071119;28;20143;-10
2022/09/08 07:31:47;;;;;;;2.67;2.47;;;24.10;44.10;;;;;;5071353;28;20076;-10
2022/09/08 07:34:20;;;;;;;2.90;2.70;;;24.10;44.10;;;;;;5071405;28;20049;-10
2022/09/08 07:37:08;;;;;;;2.63;2.42;;;24.10;44.00;;;;;;5071560;28;20553;-10
2022/09/08 07:39:47;;;;;;;2.88;2.58;;;24.10;44.00;;;;;;5068450;28;20501;-10
2022/09/08 07:42:15;;;;;;;2.50;2.30;;;24.10;44.00;;;;;;5071321;28;20152;-10
2022/09/08 07:44:41;;;;;;;2.40;2.20;;;24.10;44.10;;;;;;5071617;28;20056;-10
2022/09/08 07:47:46;;;;;;;2.50;2.30;;;24.20;44.00;;;;;;5070969;28;20470;-11
2022/09/08 07:53:29;;;;;;;2.75;2.40;;;24.20;44.00;;;;;;5071124;28;20059;-10
2022/09/08 07:56:01;;;;;;;2.85;2.65;;;24.10;44.00;;;;;;5071060;28;20449;-10
2022/09/08 07:58:40;;;;;;;3.25;2.65;;;24.10;44.10;;;;;;5070944;28;20497;-10
2022/09/08 08:01:09;;;;;;;2.88;2.58;;;24.10;44.10;;;;;;5071034;28;20053;-10
2022/09/08 08:03:49;;;;;;;4.32;2.55;;;24.10;44.10;;;;;;5070835;28;20400;-10
2022/09/08 08:06:24;;;;;;;2.70;2.50;;;24.10;44.30;;;;;;5070857;28;20082;-10
2022/09/08 08:09:07;;;;;;;2.65;2.40;;;24.10;44.10;;;;;;5071200;28;20040;-10
2022/09/08 08:11:33;;;;;;;3.10;2.83;;;24.10;44.10;;;;;;5071371;28;20109;-10
2022/09/08 08:14:25;;;;;;;2.67;2.47;;;24.10;44.10;;;;;;5071039;28;20565;-10
2022/09/08 08:17:14;;;;;;;2.83;2.60;;;24.10;44.10;;;;;;5070512;28;20052;-11
2022/09/08 08:20:12;;;;;;;2.58;2.38;;;24.10;44.10;;;;;;5070778;27;20394;-11
2022/09/08 08:22:59;;;;;;;2.70;2.50;;;24.10;44.10;;;;;;5070448;28;20052;-11
2022/09/08 08:25:41;;;;;;;2.50;2.30;;;24.10;44.10;;;;;;5070808;28;20052;-11
2022/09/08 08:28:18;;;;;;;2.60;2.40;;;24.10;44.10;;;;;;5070395;28;20491;-11
2022/09/08 08:31:03;;;;;;;2.67;2.47;;;24.10;44.10;;;;;;5070506;28;20485;-11
2022/09/08 08:33:40;;;;;;;2.53;2.33;;;24.10;44.10;;;;;;5070470;28;20045;-11
2022/09/08 08:36:12;;;;;;;3.55;2.70;;;24.10;44.10;;;;;;5070508;28;20056;-11
2022/09/08 08:38:47;;;;;;;2.75;2.50;;;24.10;44.10;;;;;;5070276;28;20060;-11
2022/09/08 08:41:52;;;;;;;2.60;2.40;;;24.10;44.10;;;;;;5070498;28;20053;-10
2022/09/08 08:44:37;;;;;;;2.60;2.40;;;24.10;44.20;;;;;;5071000;28;20097;-11
2022/09/08 08:47:08;;;;;;;2.70;2.50;;;24.10;44.30;;;;;;5070310;28;20052;-11
2022/09/08 08:49:59;;;;;;;2.95;2.65;;;24.10;44.10;;;;;;5070672;28;20060;-11
2022/09/08 08:52:49;;;;;;;2.45;2.25;;;24.10;44.10;;;;;;5070624;28;20072;-11
2022/09/08 08:55:46;;;;;;;3.13;2.80;;;24.10;44.10;;;;;;5070507;28;20055;-11
2022/09/08 08:58:42;;;;;;;3.20;2.67;;;24.10;44.20;;;;;;5070424;28;20048;-11
2022/09/08 09:01:45;;;;;;;2.80;2.60;;;24.10;44.20;;;;;;5070276;28;20067;-10
2022/09/08 09:04:57;;;;;;;2.70;2.50;;;24.10;44.20;;;;;;5069978;28;20048;-11
2022/09/08 09:07:45;;;;;;;4.95;2.83;;;24.10;44.20;;;;;;5070250;28;20053;-11
2022/09/08 09:10:48;;;;;;;4.68;2.80;;;24.10;44.10;;;;;;5070264;28;20624;-11
2022/09/08 09:13:41;;;;;;;3.00;2.65;;;24.10;44.10;;;;;;5070711;28;20045;-11
2022/09/08 09:16:37;;;;;;;2.50;2.30;;;24.10;44.20;;;;;;5069724;28;20405;-11
2022/09/08 09:19:09;;;;;;;3.53;2.58;;;24.10;44.20;;;;;;5052134;28;20055;-11
2022/09/08 09:21:50;;;;;;;3.20;2.50;;;24.20;44.10;;;;;;5069999;27;20059;-11
2022/09/08 09:24:43;;;;;;;3.05;2.42;;;24.20;44.10;;;;;;5069972;28;20059;-11
2022/09/08 09:27:48;;;;;;;3.30;2.40;;;24.20;44.10;;;;;;5068894;28;20056;-11
2022/09/08 09:30:33;;;;;;;3.38;2.67;;;24.20;44.10;;;;;;5069732;28;20052;-11
2022/09/08 09:33:17;;;;;;;4.90;2.60;;;24.20;44.10;;;;;;5070064;28;20143;-11
2022/09/08 09:36:04;;;;;;;4.57;2.30;;;24.30;44.10;;;;;;5069727;28;20073;-11
2022/09/08 09:38:56;;;;;;;3.28;2.83;;;24.30;44.20;;;;;;5069808;28;20605;-11
2022/09/08 09:41:32;;;;;;;4.25;2.70;;;24.40;44.30;;;;;;5069664;28;20469;-11
2022/09/08 09:44:22;;;;;;;4.30;2.70;;;24.40;44.30;;;;;;5069873;28;20083;-11
2022/09/08 09:47:03;;;;;;;3.30;2.78;;;24.40;44.20;;;;;;5069870;28;20052;-11
2022/09/08 09:49:47;;;;;;;3.00;2.70;;;24.40;44.30;;;;;;5069520;28;20048;-11
2022/09/08 09:52:29;;;;;;;3.55;2.65;;;24.50;44.30;;;;;;5069894;28;20060;-11
2022/09/08 09:55:17;;;;;;;4.13;2.85;;;24.40;44.10;;;;;;5069535;28;20139;-11
2022/09/08 09:58:17;;;;;;;4.22;2.50;;;24.40;44.10;;;;;;5069412;28;20059;-11
2022/09/08 10:01:22;;;;;;;2.50;2.30;;;24.40;44.10;;;;;;5069310;28;20052;-11
2022/09/08 10:04:09;;;;;;;2.92;2.63;;;24.40;44.00;;;;;;5069322;28;20531;-11
2022/09/08 10:07:09;;;;;;;3.80;2.58;;;24.50;43.90;;;;;;5069422;28;20529;-11
2022/09/08 10:09:50;;;;;;;4.05;2.67;;;24.50;43.80;;;;;;5066624;28;20429;-13
2022/09/08 10:12:37;;;;;;;2.83;2.40;;;24.50;43.80;;;;;;5068918;28;20152;-11
2022/09/08 10:15:44;;;;;;;2.65;2.38;;;24.50;43.70;;;;;;5051292;28;20052;-11
2022/09/08 10:18:52;;;;;;;3.17;2.45;;;24.50;43.60;;;;;;5064934;28;20129;-11
2022/09/08 10:21:23;;;;;;;2.35;2.15;;;24.50;43.70;;;;;;5068266;28;20055;-11
2022/09/08 10:24:07;;;;;;;3.30;2.33;;;24.50;43.80;;;;;;5067631;28;20052;-11
2022/09/08 10:27:14;;;;;;;6.40;2.67;;;24.50;43.80;;;;;;5068985;28;20045;-11
2022/09/08 10:30:19;;;;;;;3.97;2.85;;;24.50;43.70;;;;;;5067331;28;20477;-12
2022/09/08 10:33:21;;;;;;;5.07;2.72;;;24.50;43.80;;;;;;5063574;28;20045;-12
2022/09/08 10:35:53;;;;;;;3.83;2.92;;;24.40;43.90;;;;;;5067514;28;20493;-13
2022/09/08 10:38:45;;;;;;;3.20;2.60;;;24.40;43.90;;;;;;5068009;28;20056;-11
2022/09/08 10:41:19;;;;;;;2.83;2.63;;;24.40;43.90;;;;;;5071740;28;20056;-11
2022/09/08 10:44:18;;;;;;;3.95;3.03;;;24.30;44.00;;;;;;5072284;28;20048;-11
2022/09/08 10:47:21;;;;;;;3.28;2.60;;;24.30;44.00;;;;;;5071833;28;20083;-11
2022/09/08 10:50:05;;;;;;;4.32;2.90;;;24.30;44.10;;;;;;5071692;28;20053;-11
2022/09/08 10:52:32;;;;;;;3.80;2.50;;;24.30;44.10;;;;;;5072511;28;20060;-11
2022/09/08 10:55:30;;;;;;;3.45;2.30;;;24.20;44.10;;;;;;5072325;28;20053;-11
2022/09/08 10:58:41;;;;;;;3.15;2.40;;;24.20;44.20;;;;;;5072174;28;20052;-11
2022/09/08 11:01:28;;;;;;;3.33;2.60;;;24.20;44.20;;;;;;5071846;28;20147;-11
2022/09/08 11:04:33;;;;;;;2.92;2.65;;;24.20;44.40;;;;;;5071692;28;20055;-11
2022/09/08 11:07:23;;;;;;;4.32;2.88;;;24.20;44.40;;;;;;5071895;28;20053;-11
2022/09/08 11:10:01;;;;;;;3.38;2.25;;;24.20;44.40;;;;;;5068597;28;20052;-11
2022/09/08 11:12:46;;;;;;;2.60;2.25;;;24.20;44.40;;;;;;5071476;28;20103;-11
2022/09/08 11:15:40;;;;;;;2.88;2.30;;;24.20;44.40;;;;;;5071646;28;20490;-10
2022/09/08 11:18:43;;;;;;;5.72;2.38;;;24.10;44.30;;;;;;5071755;28;20140;-11
2022/09/08 11:21:27;;;;;;;3.38;2.72;;;24.10;44.40;;;;;;5071653;27;20412;-10
2022/09/08 11:24:12;;;;;;;2.47;2.28;;;24.10;44.30;;;;;;5071535;28;20549;-10
2022/09/08 11:27:05;;;;;;;2.65;2.45;;;24.10;44.40;;;;;;5055774;28;20478;-10
2022/09/08 11:29:36;;;;;;;4.07;2.22;;;24.10;44.40;;;;;;5071393;28;20055;-11
2022/09/08 11:32:29;;;;;;;2.75;2.42;;;24.10;44.40;;;;;;5071424;28;20051;-11
2022/09/08 11:35:32;;;;;;;4.85;2.50;;;24.10;44.40;;;;;;5071254;28;20164;-10
2022/09/08 11:38:32;;;;;;;2.95;2.42;;;24.10;44.50;;;;;;5071483;28;20040;-10
2022/09/08 11:41:25;;;;;;;2.70;2.50;;;24.10;44.40;;;;;;5071292;28;20417;-10
2022/09/08 11:44:18;;;;;;;3.03;2.45;;;24.10;44.40;;;;;;5071461;28;20051;-11
2022/09/08 11:46:50;;;;;;;5.22;2.38;;;24.10;44.40;;;;;;5071154;28;20051;-11
2022/09/08 11:49:18;;;;;;;4.70;2.53;;;24.10;44.30;;;;;;5071379;28;20064;-11
2022/09/08 11:52:15;;;;;;;4.45;2.45;;;24.10;44.30;;;;;;5070341;28;20148;-11
2022/09/08 11:55:24;;;;;;;3.10;2.50;;;24.00;44.30;;;;;;5071432;28;20057;-10
2022/09/08 11:58:18;;;;;;;4.15;2.50;;;24.10;44.30;;;;;;5070875;28;20049;-11
2022/09/08 12:01:05;;;;;;;2.67;2.47;;;24.10;44.30;;;;;;5036492;28;20056;-9
2022/09/08 12:04:15;;;;;;;2.75;2.53;;;24.10;44.30;;;;;;5052860;28;20056;-9
2022/09/08 12:06:52;;;;;;;2.67;2.47;;;24.10;44.20;;;;;;5071927;28;20053;-10
2022/09/08 12:09:26;;;;;;;3.95;2.47;;;24.10;44.20;;;;;;5071742;28;20059;-10
2022/09/08 12:12:29;;;;;;;2.70;2.50;;;24.10;44.20;;;;;;5071106;28;20048;-10
2022/09/08 12:15:02;;;;;;;3.08;2.30;;;24.10;44.10;;;;;;5071265;28;20089;-10
2022/09/08 12:17:47;;;;;;;2.75;2.22;;;24.10;44.10;;;;;;5070499;28;20052;-10
2022/09/08 12:20:38;;;;;;;2.97;2.13;;;24.10;44.20;;;;;;5070843;28;20061;-10
2022/09/08 12:23:31;;;;;;;2.95;2.30;;;24.10;44.20;;;;;;5070807;28;20516;-10
2022/09/08 12:26:09;;;;;;;3.15;2.15;;;24.10;44.20;;;;;;5070752;28;20477;-10
2022/09/08 12:28:49;;;;;;;2.58;2.38;;;24.00;44.20;;;;;;5070437;28;20055;-10
2022/09/08 12:31:41;;;;;;;2.80;2.60;;;24.00;44.20;;;;;;5070995;28;20044;-10
2022/09/08 12:34:34;;;;;;;3.47;2.50;;;24.00;44.20;;;;;;5071277;28;20181;-10
2022/09/08 12:37:20;;;;;;;3.55;2.40;;;24.10;44.20;;;;;;5070305;28;20488;-10
2022/09/08 12:40:18;;;;;;;2.53;2.28;;;24.00;44.20;;;;;;5067642;28;20053;-10
2022/09/08 12:43:08;;;;;;;2.95;2.33;;;24.00;44.30;;;;;;5070834;28;20104;-10
2022/09/08 12:45:45;;;;;;;2.92;2.30;;;24.00;44.30;;;;;;5070378;28;20512;-10
2022/09/08 12:48:11;;;;;;;2.88;2.40;;;24.00;44.30;;;;;;5070426;28;20140;-10
2022/09/08 12:50:48;;;;;;;4.40;2.53;;;24.00;44.40;;;;;;5070387;28;20139;-10
2022/09/08 12:53:41;;;;;;;4.22;2.80;;;24.00;44.40;;;;;;5052357;28;20485;-10
2022/09/08 12:56:36;;;;;;;3.17;2.50;;;24.00;44.40;;;;;;5070132;28;20200;-10
2022/09/08 12:59:33;;;;;;;3.35;2.53;;;24.00;44.40;;;;;;5070429;28;20044;-10
2022/09/08 13:02:33;;;;;;;3.33;2.25;;;24.00;44.40;;;;;;5069345;28;20504;-10
2022/09/08 13:05:03;;;;;;;3.17;2.30;;;24.00;44.40;;;;;;5070578;28;20048;-10
2022/09/08 13:07:48;;;;;;;3.22;2.35;;;24.00;44.40;;;;;;5070135;28;20064;-10
2022/09/08 13:10:34;;;;;;;4.10;2.38;;;24.00;44.50;;;;;;5070229;28;20053;-10
2022/09/08 13:13:34;;;;;;;3.03;2.17;;;24.00;44.40;;;;;;5070716;28;20496;-10
2022/09/08 13:16:27;;;;;;;2.67;2.47;;;24.00;44.40;;;;;;5069643;28;20504;-10
2022/09/08 13:19:00;;;;;;;2.90;2.55;;;24.00;44.40;;;;;;5070023;28;20077;-10
2022/09/08 13:22:00;;;;;;;4.40;2.53;;;24.00;44.50;;;;;;5070434;27;20447;-10
2022/09/08 13:24:46;;;;;;;2.65;2.45;;;23.90;44.40;;;;;;5051272;28;20057;-10
2022/09/08 13:27:34;;;;;;;4.80;2.75;;;23.90;44.40;;;;;;5069698;28;20494;-10
2022/09/08 13:30:11;;;;;;;2.85;2.55;;;23.90;44.40;;;;;;5069945;28;20083;-10
2022/09/08 13:32:46;;;;;;;5.60;2.80;;;23.90;44.50;;;;;;5070076;27;20048;-10
2022/09/08 13:35:43;;;;;;;4.25;2.53;;;23.90;44.40;;;;;;5069832;28;20052;-10
2022/09/08 13:38:45;;;;;;;3.92;2.53;;;23.90;44.40;;;;;;5069951;28;20048;-10
2022/09/08 13:41:48;;;;;;;4.55;2.63;;;23.90;44.40;;;;;;5052076;28;20056;-10
2022/09/08 13:44:48;;;;;;;2.30;2.10;;;23.90;44.50;;;;;;5069717;28;20474;-10
2022/09/08 13:47:54;;;;;;;3.13;2.58;;;23.90;44.40;;;;;;5069661;28;20148;-10